createdAt,value
2019-01-19T00:00:57.619Z,2.12
2019-01-19T00:03:59.263Z,1.65
2019-01-19T00:06:52.109Z,1.98
2019-01-19T00:09:54.023Z,2.22
2019-01-19T00:12:33.154Z,2.08
2019-01-19T00:15:09.523Z,2.83
2019-01-19T00:18:13.177Z,3.02
2019-01-19T00:21:28.611Z,1.92
2019-01-19T00:24:15.554Z,1.50
2019-01-19T00:27:15.246Z,1.80
2019-01-19T00:30:29.273Z,2.22
2019-01-19T00:33:38.482Z,2.12
2019-01-19T00:36:29.023Z,3.72
2019-01-19T00:39:17.982Z,2.10
2019-01-19T00:42:20.354Z,1.62
2019-01-19T00:45:21.610Z,2.05
2019-01-19T00:48:20.743Z,3.02
2019-01-19T00:51:26.169Z,4.45
2019-01-19T00:54:19.536Z,1.98
2019-01-19T00:57:05.012Z,2.40
2019-01-19T00:59:38.020Z,3.08
2019-01-19T01:02:51.958Z,2.70
2019-01-19T01:05:25.808Z,2.33
2019-01-19T01:08:18.634Z,2.35
2019-01-19T01:11:13.048Z,2.27
2019-01-19T01:14:32.316Z,2.10
2019-01-19T01:17:43.125Z,2.47
2019-01-19T01:20:45.104Z,3.55
2019-01-19T01:23:28.469Z,4.75
2019-01-19T01:26:34.627Z,2.70
2019-01-19T01:29:44.472Z,4.20
2019-01-19T01:32:52.640Z,2.27
2019-01-19T01:35:57.298Z,6.35
2019-01-19T01:38:49.174Z,2.50
2019-01-19T01:41:43.367Z,3.00
2019-01-19T01:44:44.834Z,3.35
2019-01-19T01:47:51.358Z,2.15
2019-01-19T01:50:53.104Z,2.85
2019-01-19T01:53:59.726Z,2.58
2019-01-19T01:56:28.267Z,2.60
2019-01-19T01:59:37.453Z,1.90
2019-01-19T02:02:43.447Z,3.75
2019-01-19T02:05:46.218Z,1.60
2019-01-19T02:08:33.178Z,6.95
2019-01-19T02:11:54.314Z,1.95
2019-01-19T02:14:32.707Z,2.30
2019-01-19T02:17:50.718Z,1.80
2019-01-19T02:21:03.048Z,1.98
2019-01-19T02:24:13.682Z,3.75
2019-01-19T02:27:11.580Z,2.12
2019-01-19T02:30:23.848Z,1.62
2019-01-19T02:33:17.743Z,2.20
2019-01-19T02:36:15.241Z,2.77
2019-01-19T02:39:18.252Z,2.30
2019-01-19T02:42:12.402Z,2.42
2019-01-19T02:45:08.223Z,1.95
2019-01-19T02:48:23.806Z,2.10
2019-01-19T02:51:03.595Z,2.55
2019-01-19T02:54:14.118Z,2.12
2019-01-19T02:57:38.229Z,2.17
2019-01-19T03:00:39.426Z,2.00
2019-01-19T03:03:52.155Z,2.30
2019-01-19T03:06:29.861Z,2.00
2019-01-19T03:09:08.863Z,2.20
2019-01-19T03:11:50.981Z,1.90
2019-01-19T03:14:53.741Z,2.02
2019-01-19T03:17:48.396Z,2.20
2019-01-19T03:20:55.169Z,2.27
2019-01-19T03:24:05.373Z,2.30
2019-01-19T03:26:49.097Z,2.15
2019-01-19T03:29:34.540Z,1.92
2019-01-19T03:33:02.677Z,1.80
2019-01-19T03:36:20.032Z,2.62
2019-01-19T03:39:23.888Z,2.15
2019-01-19T03:42:45.286Z,2.00
2019-01-19T03:45:41.312Z,2.95
2019-01-19T03:48:35.254Z,1.98
2019-01-19T03:51:36.312Z,2.77
2019-01-19T03:54:17.033Z,2.05
2019-01-19T03:57:05.386Z,2.15
2019-01-19T04:00:16.205Z,2.20
2019-01-19T04:03:24.277Z,2.40
2019-01-19T04:06:19.860Z,1.90
2019-01-19T04:09:12.384Z,2.27
2019-01-19T04:12:04.084Z,1.72
2019-01-19T04:14:55.439Z,1.70
2019-01-19T04:17:48.109Z,2.10
2019-01-19T04:20:59.336Z,1.72
2019-01-19T04:23:27.428Z,2.05
2019-01-19T04:26:09.969Z,2.30
2019-01-19T04:28:38.236Z,1.70
2019-01-19T04:31:06.602Z,1.45
2019-01-19T04:33:35.003Z,2.05
2019-01-19T04:36:03.435Z,1.80
2019-01-19T04:38:33.713Z,1.75
2019-01-19T04:41:02.085Z,2.70
2019-01-19T04:43:30.034Z,1.60
2019-01-19T04:45:58.252Z,1.75
2019-01-19T04:48:26.760Z,1.75
2019-01-19T04:50:54.954Z,1.60
2019-01-19T04:53:23.107Z,1.82
2019-01-19T04:55:52.336Z,1.67
2019-01-19T04:58:20.438Z,1.70
2019-01-19T05:00:50.126Z,1.30
2019-01-19T05:03:18.419Z,2.10
2019-01-19T05:05:47.732Z,1.45
2019-01-19T05:08:16.690Z,1.35
2019-01-19T05:10:56.027Z,1.87
2019-01-19T05:13:26.187Z,1.70
2019-01-19T05:15:55.950Z,1.60
2019-01-19T05:18:24.893Z,1.42
2019-01-19T05:20:54.356Z,1.65
2019-01-19T05:23:22.922Z,1.55
2019-01-19T05:25:51.429Z,1.50
2019-01-19T05:28:19.445Z,1.75
2019-01-19T05:30:47.496Z,1.70
2019-01-19T05:33:15.683Z,1.85
2019-01-19T05:35:43.749Z,1.65
2019-01-19T05:38:12.262Z,1.57
2019-01-19T05:40:40.974Z,2.45
2019-01-19T05:43:08.951Z,2.25
2019-01-19T05:45:37.620Z,1.90
2019-01-19T05:48:06.043Z,2.77
2019-01-19T05:50:34.463Z,1.20
2019-01-19T05:53:03.950Z,1.70
2019-01-19T05:55:33.214Z,1.70
2019-01-19T05:58:01.294Z,1.92
2019-01-19T06:00:36.480Z,1.55
2019-01-19T06:03:05.293Z,1.70
2019-01-19T06:05:33.516Z,2.20
2019-01-19T06:08:03.212Z,1.80
2019-01-19T06:10:31.235Z,1.67
2019-01-19T06:13:00.038Z,1.60
2019-01-19T06:15:28.185Z,2.25
2019-01-19T06:17:56.476Z,1.75
2019-01-19T06:20:25.213Z,1.55
2019-01-19T06:22:54.441Z,2.62
2019-01-19T06:25:33.072Z,1.32
2019-01-19T06:28:01.097Z,1.72
2019-01-19T06:30:30.384Z,1.92
2019-01-19T06:32:59.013Z,1.45
2019-01-19T06:35:27.874Z,1.45
2019-01-19T06:37:56.282Z,1.47
2019-01-19T06:40:26.123Z,1.82
2019-01-19T06:42:54.604Z,1.80
2019-01-19T06:45:27.695Z,2.45
2019-01-19T06:47:56.022Z,1.85
2019-01-19T06:50:24.268Z,1.92
2019-01-19T06:52:55.773Z,1.50
2019-01-19T06:55:32.039Z,1.82
2019-01-19T06:58:00.119Z,2.10
2019-01-19T07:00:29.411Z,1.70
2019-01-19T07:02:57.752Z,1.98
2019-01-19T07:05:25.832Z,2.20
2019-01-19T07:07:57.716Z,2.10
2019-01-19T07:10:26.827Z,1.67
2019-01-19T07:12:54.844Z,1.82
2019-01-19T07:15:27.322Z,2.77
2019-01-19T07:18:28.999Z,4.40
2019-01-19T07:20:57.255Z,2.05
2019-01-19T07:23:25.640Z,2.62
2019-01-19T07:25:56.224Z,2.55
2019-01-19T07:28:24.549Z,2.80
2019-01-19T07:30:53.100Z,2.55
2019-01-19T07:33:22.664Z,2.20
2019-01-19T07:35:51.088Z,2.47
2019-01-19T07:38:22.380Z,2.27
2019-01-19T07:40:52.259Z,2.00
2019-01-19T07:43:22.339Z,2.10
2019-01-19T07:45:51.215Z,2.27
2019-01-19T07:48:19.638Z,2.27
2019-01-19T07:50:49.464Z,2.47
2019-01-19T07:53:17.719Z,2.60
2019-01-19T07:55:46.329Z,2.67
2019-01-19T07:58:16.080Z,9.83
2019-01-19T08:00:44.828Z,2.30
2019-01-19T08:03:14.457Z,3.20
2019-01-19T08:05:46.103Z,5.33
2019-01-19T08:08:16.546Z,4.20
2019-01-19T08:10:45.502Z,3.90
2019-01-19T08:13:15.153Z,4.25
2019-01-19T08:15:44.449Z,4.60
2019-01-19T08:18:13.973Z,5.47
2019-01-19T08:20:42.337Z,5.50
2019-01-19T08:23:10.581Z,4.78
2019-01-19T08:25:38.856Z,6.12
2019-01-19T08:28:09.772Z,4.03
2019-01-19T08:30:38.567Z,6.42
2019-01-19T08:33:07.202Z,5.70
2019-01-19T08:35:36.342Z,7.75
2019-01-19T08:38:07.496Z,4.95
2019-01-19T08:40:38.682Z,4.15
2019-01-19T08:43:26.426Z,5.47
2019-01-19T08:45:55.009Z,5.65
2019-01-19T08:48:23.421Z,7.40
2019-01-19T08:50:54.659Z,6.33
2019-01-19T08:53:22.763Z,3.55
2019-01-19T08:55:52.030Z,3.10
2019-01-19T08:58:20.232Z,2.50
2019-01-19T09:00:49.589Z,4.25
2019-01-19T09:03:18.414Z,6.55
2019-01-19T09:05:53.778Z,2.85
2019-01-19T09:08:30.919Z,3.55
2019-01-19T09:11:03.769Z,3.00
2019-01-19T09:13:31.879Z,3.02
2019-01-19T09:16:20.263Z,4.15
2019-01-19T09:18:50.665Z,3.90
2019-01-19T09:21:22.432Z,4.10
2019-01-19T09:24:07.131Z,4.00
2019-01-19T09:26:35.555Z,3.40
2019-01-19T09:29:08.931Z,4.53
2019-01-19T09:31:39.800Z,4.05
2019-01-19T09:34:08.089Z,12.35
2019-01-19T09:36:38.608Z,13.30
2019-01-19T09:39:15.756Z,16.70
2019-01-19T09:41:44.757Z,18.60
2019-01-19T09:44:12.783Z,17.12
2019-01-19T09:46:44.885Z,12.78
2019-01-19T09:49:19.789Z,9.65
2019-01-19T09:51:49.593Z,10.58
2019-01-19T09:54:44.889Z,6.97
2019-01-19T09:57:13.234Z,11.90
2019-01-19T09:59:41.971Z,18.50
2019-01-19T10:02:19.095Z,29.52
2019-01-19T10:04:50.224Z,14.53
2019-01-19T10:07:18.455Z,18.90
2019-01-19T10:09:54.800Z,68.72
2019-01-19T10:12:23.611Z,22.77
2019-01-19T10:14:54.428Z,9.98
2019-01-19T10:17:27.472Z,9.30
2019-01-19T10:19:56.195Z,11.60
2019-01-19T10:22:26.291Z,11.30
2019-01-19T10:24:54.688Z,32.73
2019-01-19T10:27:28.654Z,15.00
2019-01-19T10:29:57.144Z,42.05
2019-01-19T10:32:25.852Z,11.48
2019-01-19T10:35:04.545Z,34.48
2019-01-19T10:37:38.783Z,23.80
2019-01-19T10:40:08.827Z,8.75
2019-01-19T10:42:39.816Z,9.30
2019-01-19T10:45:13.776Z,7.10
2019-01-19T10:47:56.089Z,32.58
2019-01-19T10:50:36.622Z,7.15
2019-01-19T10:53:07.540Z,6.92
2019-01-19T10:55:48.723Z,6.35
2019-01-19T10:58:23.945Z,5.60
2019-01-19T11:01:13.749Z,9.00
2019-01-19T11:03:44.889Z,10.75
2019-01-19T11:06:41.294Z,13.32
2019-01-19T11:09:15.225Z,10.75
2019-01-19T11:11:49.073Z,15.20
2019-01-19T11:14:21.085Z,8.10
2019-01-19T11:16:52.700Z,10.15
2019-01-19T11:19:21.312Z,5.30
2019-01-19T11:21:50.008Z,4.62
2019-01-19T11:24:22.558Z,6.62
2019-01-19T11:26:51.096Z,4.87
2019-01-19T11:29:28.811Z,6.75
2019-01-19T11:31:57.857Z,4.92
2019-01-19T11:34:27.001Z,10.30
2019-01-19T11:36:55.635Z,9.03
2019-01-19T11:39:26.407Z,7.03
2019-01-19T11:41:56.246Z,6.97
2019-01-19T11:44:28.700Z,4.60
2019-01-19T11:46:59.251Z,14.60
2019-01-19T11:49:27.774Z,22.07
2019-01-19T11:52:00.367Z,4.70
2019-01-19T11:54:28.798Z,8.68
2019-01-19T11:56:57.317Z,27.75
2019-01-19T11:59:25.360Z,10.68
2019-01-19T12:01:58.213Z,11.63
2019-01-19T12:04:26.588Z,10.65
2019-01-19T12:06:58.237Z,4.35
2019-01-19T12:09:26.763Z,7.85
2019-01-19T12:11:55.274Z,5.62
2019-01-19T12:14:26.754Z,4.15
2019-01-19T12:16:55.060Z,6.78
2019-01-19T12:19:23.530Z,4.10
2019-01-19T12:21:52.255Z,13.00
2019-01-19T12:24:21.344Z,10.95
2019-01-19T12:26:49.626Z,4.12
2019-01-19T12:29:17.716Z,4.12
2019-01-19T12:31:45.800Z,4.22
2019-01-19T12:34:14.172Z,4.15
2019-01-19T12:36:42.649Z,5.20
2019-01-19T12:39:10.908Z,9.03
2019-01-19T12:41:40.059Z,37.28
2019-01-19T12:44:09.233Z,20.90
2019-01-19T12:46:38.207Z,4.72
2019-01-19T12:49:07.902Z,9.90
2019-01-19T12:51:36.369Z,61.87
2019-01-19T12:54:04.689Z,26.65
2019-01-19T12:56:33.359Z,15.47
2019-01-19T12:59:01.465Z,15.50
2019-01-19T13:01:30.191Z,22.45
2019-01-19T13:03:59.683Z,16.77
2019-01-19T13:06:57.836Z,17.85
2019-01-19T13:09:38.160Z,12.93
2019-01-19T13:12:33.572Z,19.82
2019-01-19T13:15:37.438Z,11.30
2019-01-19T13:18:42.231Z,8.85
2019-01-19T13:22:01.156Z,6.95
2019-01-19T13:25:09.060Z,6.20
2019-01-19T13:28:05.343Z,16.48
2019-01-19T13:31:09.489Z,13.08
2019-01-19T13:34:28.948Z,24.77
2019-01-19T13:37:33.283Z,13.78
2019-01-19T13:40:40.704Z,5.15
2019-01-19T13:43:48.396Z,6.50
2019-01-19T13:47:06.102Z,13.30
2019-01-19T13:50:12.328Z,7.85
2019-01-19T13:53:03.460Z,5.30
2019-01-19T13:55:56.869Z,13.08
2019-01-19T13:58:54.537Z,7.28
2019-01-19T14:02:00.065Z,6.00
2019-01-19T14:05:08.942Z,4.55
2019-01-19T14:08:35.230Z,5.70
2019-01-19T14:11:43.504Z,5.62
2019-01-19T14:14:53.256Z,8.18
2019-01-19T14:17:37.944Z,5.65
2019-01-19T14:20:50.026Z,6.90
2019-01-19T14:23:45.680Z,6.42
2019-01-19T14:26:42.619Z,7.80
2019-01-19T14:30:00.357Z,7.03
2019-01-19T14:33:07.674Z,8.73
2019-01-19T14:36:49.781Z,6.83
2019-01-19T14:39:53.427Z,6.10
2019-01-19T14:42:57.031Z,6.17
2019-01-19T14:46:09.707Z,6.12
2019-01-19T14:49:18.110Z,6.00
2019-01-19T14:52:08.415Z,5.33
2019-01-19T14:55:11.621Z,5.78
2019-01-19T14:58:16.537Z,7.05
2019-01-19T15:00:59.536Z,9.48
2019-01-19T15:03:50.801Z,7.05
2019-01-19T15:06:55.349Z,9.53
2019-01-19T15:09:42.846Z,7.67
2019-01-19T15:12:48.725Z,8.75
2019-01-19T15:15:53.152Z,6.60
2019-01-19T15:19:12.085Z,6.78
2019-01-19T15:22:19.075Z,7.10
2019-01-19T15:25:11.217Z,6.33
2019-01-19T15:27:58.316Z,6.22
2019-01-19T15:31:11.869Z,6.58
2019-01-19T15:34:20.915Z,5.92
2019-01-19T15:37:15.026Z,5.72
2019-01-19T15:40:19.699Z,6.45
2019-01-19T15:43:26.057Z,6.58
2019-01-19T15:46:42.224Z,7.37
2019-01-19T15:49:41.838Z,6.55
2019-01-19T15:52:19.271Z,6.00
2019-01-19T15:55:21.185Z,6.58
2019-01-19T15:58:24.034Z,7.15
2019-01-19T16:01:28.661Z,7.50
2019-01-19T16:04:29.096Z,5.47
2019-01-19T16:07:32.746Z,5.12
2019-01-19T16:10:29.280Z,5.85
2019-01-19T16:13:21.649Z,5.20
2019-01-19T16:16:27.806Z,7.80
2019-01-19T16:19:41.842Z,7.78
2019-01-19T16:22:39.696Z,7.30
2019-01-19T16:25:30.056Z,6.60
2019-01-19T16:28:53.219Z,7.87
2019-01-19T16:31:40.794Z,7.08
2019-01-19T16:34:37.722Z,8.43
2019-01-19T16:38:01.223Z,6.87
2019-01-19T16:41:13.762Z,6.03
2019-01-19T16:44:25.282Z,7.75
2019-01-19T16:47:36.507Z,7.05
2019-01-19T16:50:48.155Z,7.10
2019-01-19T16:53:56.255Z,6.33
2019-01-19T16:57:11.374Z,8.53
2019-01-19T17:00:10.193Z,6.05
2019-01-19T17:03:04.058Z,6.55
2019-01-19T17:05:57.091Z,9.73
2019-01-19T17:09:05.170Z,7.72
2019-01-19T17:12:03.667Z,6.10
2019-01-19T17:15:05.280Z,6.75
2019-01-19T17:18:06.076Z,6.83
2019-01-19T17:21:13.390Z,6.80
2019-01-19T17:24:35.873Z,6.47
2019-01-19T17:28:09.091Z,6.30
2019-01-19T17:31:16.634Z,6.10
2019-01-19T17:34:19.717Z,6.90
2019-01-19T17:37:17.930Z,7.72
2019-01-19T17:40:11.334Z,6.70
2019-01-19T17:43:19.507Z,7.25
2019-01-19T17:46:40.809Z,7.80
2019-01-19T17:49:43.404Z,6.85
2019-01-19T17:53:05.095Z,8.08
2019-01-19T17:56:22.033Z,8.83
2019-01-19T17:59:28.619Z,7.37
2019-01-19T18:02:21.041Z,7.65
2019-01-19T18:05:39.296Z,9.78
2019-01-19T18:08:31.699Z,8.98
2019-01-19T18:11:31.590Z,7.67
2019-01-19T18:14:49.952Z,7.30
2019-01-19T18:17:49.646Z,6.40
2019-01-19T18:20:57.542Z,7.33
2019-01-19T18:24:04.396Z,6.20
2019-01-19T18:27:05.185Z,9.83
2019-01-19T18:30:19.063Z,7.53
2019-01-19T18:33:23.081Z,6.20
2019-01-19T18:36:22.712Z,7.25
2019-01-19T18:39:31.989Z,6.72
2019-01-19T18:42:56.528Z,23.42
2019-01-19T18:46:06.415Z,16.07
2019-01-19T18:49:31.211Z,16.67
2019-01-19T18:52:36.478Z,17.45
2019-01-19T18:55:57.244Z,13.93
2019-01-19T18:59:04.424Z,14.85
2019-01-19T19:01:58.395Z,11.18
2019-01-19T19:05:24.507Z,9.98
2019-01-19T19:08:25.471Z,11.10
2019-01-19T19:11:55.570Z,10.50
2019-01-19T19:15:14.362Z,9.65
2019-01-19T19:18:21.998Z,9.45
2019-01-19T19:21:52.625Z,10.78
2019-01-19T19:25:26.519Z,11.95
2019-01-19T19:28:42.203Z,12.28
2019-01-19T19:31:36.997Z,13.45
2019-01-19T19:34:37.392Z,13.72
2019-01-19T19:37:46.850Z,11.68
2019-01-19T19:41:04.239Z,13.50
2019-01-19T19:44:03.008Z,12.07
2019-01-19T19:47:16.025Z,14.47
2019-01-19T19:50:39.853Z,12.43
2019-01-19T19:53:09.525Z,9.45
2019-01-19T19:55:36.303Z,12.82
2019-01-19T19:58:04.510Z,11.55
2019-01-19T20:00:34.982Z,14.50
2019-01-19T20:03:05.567Z,11.97
2019-01-19T20:05:34.053Z,14.05
2019-01-19T20:08:03.776Z,12.75
2019-01-19T20:10:32.803Z,14.38
2019-01-19T20:13:03.547Z,12.60
2019-01-19T20:15:39.585Z,15.55
2019-01-19T20:18:09.703Z,14.20
2019-01-19T20:20:39.597Z,17.25
2019-01-19T20:23:09.572Z,13.40
2019-01-19T20:25:39.784Z,14.55
2019-01-19T20:28:09.466Z,13.75
2019-01-19T20:30:40.649Z,12.10
2019-01-19T20:33:09.060Z,18.57
2019-01-19T20:35:38.559Z,16.42
2019-01-19T20:38:09.672Z,13.40
2019-01-19T20:40:39.536Z,14.43
2019-01-19T20:43:08.004Z,23.55
2019-01-19T20:45:36.650Z,14.15
2019-01-19T20:48:10.699Z,15.65
2019-01-19T20:50:40.458Z,18.02
2019-01-19T20:53:09.825Z,19.80
2019-01-19T20:55:40.227Z,14.35
2019-01-19T20:58:09.278Z,17.73
2019-01-19T21:00:39.774Z,17.25
2019-01-19T21:03:12.668Z,16.48
2019-01-19T21:05:41.414Z,18.75
2019-01-19T21:08:16.024Z,18.42
2019-01-19T21:10:44.989Z,18.73
2019-01-19T21:13:13.652Z,18.17
2019-01-19T21:15:42.079Z,17.35
2019-01-19T21:18:15.539Z,18.55
2019-01-19T21:20:44.187Z,18.20
2019-01-19T21:23:13.205Z,19.80
2019-01-19T21:25:45.651Z,16.48
2019-01-19T21:28:14.893Z,19.82
2019-01-19T21:30:43.729Z,14.87
2019-01-19T21:33:12.260Z,17.42
2019-01-19T21:35:40.443Z,17.10
2019-01-19T21:38:12.931Z,16.23
2019-01-19T21:40:41.204Z,17.00
2019-01-19T21:43:09.442Z,15.83
2019-01-19T21:45:38.073Z,16.20
2019-01-19T21:48:06.860Z,14.78
2019-01-19T21:50:35.072Z,15.35
2019-01-19T21:53:06.595Z,13.75
2019-01-19T21:55:34.664Z,14.75
2019-01-19T21:58:05.134Z,14.70
2019-01-19T22:00:35.322Z,16.93
2019-01-19T22:03:06.782Z,14.60
2019-01-19T22:05:35.069Z,13.65
2019-01-19T22:08:06.402Z,14.85
2019-01-19T22:10:34.562Z,16.82
2019-01-19T22:13:06.284Z,11.05
2019-01-19T22:15:38.421Z,13.05
2019-01-19T22:18:07.330Z,13.75
2019-01-19T22:20:36.574Z,11.22
2019-01-19T22:23:05.779Z,15.88
2019-01-19T22:25:37.928Z,11.83
2019-01-19T22:28:06.169Z,11.93
2019-01-19T22:30:36.020Z,14.63
2019-01-19T22:33:11.007Z,12.28
2019-01-19T22:35:39.385Z,10.88
2019-01-19T22:38:08.072Z,13.05
2019-01-19T22:40:36.885Z,14.70
2019-01-19T22:43:10.820Z,15.53
2019-01-19T22:45:42.443Z,13.78
2019-01-19T22:48:11.912Z,10.70
2019-01-19T22:50:40.182Z,12.05
2019-01-19T22:53:08.841Z,13.13
2019-01-19T22:55:37.133Z,12.88
2019-01-19T22:58:05.660Z,14.68
2019-01-19T23:01:08.572Z,12.00
2019-01-19T23:03:38.433Z,17.20
2019-01-19T23:06:07.865Z,11.97
2019-01-19T23:08:35.999Z,14.95
2019-01-19T23:11:04.649Z,14.47
2019-01-19T23:13:34.705Z,15.10
2019-01-19T23:16:03.484Z,16.70
2019-01-19T23:18:32.341Z,11.57
2019-01-19T23:21:00.280Z,11.10
2019-01-19T23:23:28.384Z,12.65
2019-01-19T23:26:01.366Z,12.37
2019-01-19T23:28:30.329Z,12.00
2019-01-19T23:30:58.522Z,11.50
2019-01-19T23:33:27.735Z,11.80
2019-01-19T23:35:56.018Z,12.50
2019-01-19T23:38:24.114Z,10.53
2019-01-19T23:40:52.079Z,12.55
2019-01-19T23:43:22.117Z,10.15
2019-01-19T23:45:50.217Z,8.43
2019-01-19T23:48:18.199Z,8.90
2019-01-19T23:50:46.148Z,8.88
2019-01-19T23:53:15.511Z,9.15
2019-01-19T23:55:43.530Z,9.35
2019-01-19T23:58:12.623Z,11.08
